Time;durP1;ratioP1;P1;durP2;ratioP2;P2;SDS_P1;SDS_P2;PMS_P1;PMS_P2;Temp;Humidity;BMP_temperature;BMP_pressure;BME280_temperature;BME280_humidity;BME280_pressure;Samples;Min_cycle;Max_cycle;Signal;HPM_P1;HPM_P2
2023/03/02 00:00:56;;;;;;;18.98;12.05;;;;;;;;;;5054254;28;20222;-67
2023/03/02 00:03:25;;;;;;;21.48;13.32;;;;;;;;;;5053241;28;20223;-66
2023/03/02 00:05:54;;;;;;;22.25;13.63;;;;;;;;;;5052796;28;20575;-67
2023/03/02 00:08:23;;;;;;;24.83;13.82;;;;;;;;;;5054178;28;20238;-67
2023/03/02 00:10:53;;;;;;;23.80;13.90;;;;;;;;;;5054404;28;20277;-67
2023/03/02 00:13:21;;;;;;;27.38;12.88;;;;;;;;;;5053729;28;20203;-67
2023/03/02 00:15:50;;;;;;;26.30;13.23;;;;;;;;;;5054176;28;20204;-67
2023/03/02 00:18:18;;;;;;;19.58;12.45;;;;;;;;;;5042501;28;20207;-67
2023/03/02 00:20:46;;;;;;;16.40;11.20;;;;;;;;;;5034564;28;20219;-68
2023/03/02 00:23:15;;;;;;;19.77;11.73;;;;;;;;;;5035283;28;20251;-67
2023/03/02 00:25:44;;;;;;;18.65;11.20;;;;;;;;;;5054516;28;20207;-67
2023/03/02 00:28:13;;;;;;;17.17;11.82;;;;;;;;;;5055302;28;20211;-67
2023/03/02 00:30:41;;;;;;;21.10;12.32;;;;;;;;;;5054143;28;20311;-67
2023/03/02 00:33:10;;;;;;;22.15;12.88;;;;;;;;;;5054191;28;20201;-67
2023/03/02 00:35:38;;;;;;;17.83;11.02;;;;;;;;;;5053894;28;20214;-67
2023/03/02 00:38:07;;;;;;;19.35;11.65;;;;;;;;;;5054121;28;20205;-67
2023/03/02 00:40:35;;;;;;;18.73;12.75;;;;;;;;;;5054722;28;20207;-67
2023/03/02 00:43:03;;;;;;;25.92;13.70;;;;;;;;;;5050310;28;20728;-67
2023/03/02 00:45:33;;;;;;;22.05;13.35;;;;;;;;;;5047410;28;20293;-67
2023/03/02 00:48:01;;;;;;;21.45;12.85;;;;;;;;;;5041337;28;20200;-67
2023/03/02 00:50:29;;;;;;;21.05;13.30;;;;;;;;;;5053257;28;20208;-67
2023/03/02 00:52:57;;;;;;;25.52;14.82;;;;;;;;;;5052701;28;20577;-67
2023/03/02 00:55:26;;;;;;;22.85;12.80;;;;;;;;;;5052606;28;20196;-67
2023/03/02 00:57:54;;;;;;;28.42;12.88;;;;;;;;;;5052595;28;20193;-67
2023/03/02 01:00:28;;;;;;;22.70;12.82;;;;;;;;;;5053760;28;20222;-67
2023/03/02 01:02:59;;;;;;;22.90;14.20;;;;;;;;;;5050767;28;20201;-67
2023/03/02 01:05:28;;;;;;;22.02;12.93;;;;;;;;;;5050745;28;20212;-67
2023/03/02 01:07:56;;;;;;;20.95;13.70;;;;;;;;;;5052750;28;20196;-67
2023/03/02 01:10:24;;;;;;;20.08;12.23;;;;;;;;;;5056803;28;20904;-67
2023/03/02 01:12:52;;;;;;;21.92;13.23;;;;;;;;;;5056156;28;20205;-67
2023/03/02 01:15:20;;;;;;;20.75;13.07;;;;;;;;;;5056289;28;20203;-67
2023/03/02 01:17:49;;;;;;;20.25;12.68;;;;;;;;;;5056194;28;20208;-67
2023/03/02 01:20:18;;;;;;;19.67;11.93;;;;;;;;;;5055929;28;20231;-67
2023/03/02 01:22:47;;;;;;;24.08;13.75;;;;;;;;;;5054289;28;20225;-67
2023/03/02 01:25:15;;;;;;;20.92;12.35;;;;;;;;;;5055259;28;20222;-67
2023/03/02 01:27:43;;;;;;;23.50;11.52;;;;;;;;;;5056109;28;20204;-67
2023/03/02 01:30:12;;;;;;;23.23;13.40;;;;;;;;;;5055790;28;20241;-67
2023/03/02 01:32:40;;;;;;;23.38;14.18;;;;;;;;;;5055943;28;20215;-67
2023/03/02 01:35:09;;;;;;;19.10;12.70;;;;;;;;;;5055487;28;20209;-67
2023/03/02 01:37:38;;;;;;;19.92;11.85;;;;;;;;;;5055390;28;20671;-67
2023/03/02 01:40:08;;;;;;;24.27;13.95;;;;;;;;;;5054992;28;20204;-67
2023/03/02 01:42:38;;;;;;;24.80;13.23;;;;;;;;;;5055382;28;20201;-67
2023/03/02 01:45:07;;;;;;;24.42;13.15;;;;;;;;;;5053510;28;20222;-67
2023/03/02 01:47:36;;;;;;;19.27;11.40;;;;;;;;;;5054107;28;20204;-67
2023/03/02 01:50:18;;;;;;;20.73;13.43;;;;;;;;;;5053921;28;20188;-67
2023/03/02 01:52:48;;;;;;;21.15;12.80;;;;;;;;;;5054298;28;20191;-67
2023/03/02 01:55:20;;;;;;;22.20;14.70;;;;;;;;;;5054371;28;20185;-67
2023/03/02 01:57:50;;;;;;;28.88;14.52;;;;;;;;;;5055049;28;20189;-67
2023/03/02 02:00:22;;;;;;;24.95;13.25;;;;;;;;;;5053398;28;20277;-67
2023/03/02 02:02:51;;;;;;;22.17;13.00;;;;;;;;;;5054690;28;20546;-67
2023/03/02 02:05:25;;;;;;;18.85;12.10;;;;;;;;;;5053646;28;20262;-67
2023/03/02 02:07:55;;;;;;;22.27;12.57;;;;;;;;;;5054130;28;20183;-67
2023/03/02 02:10:24;;;;;;;21.67;12.98;;;;;;;;;;5052142;28;20205;-67
2023/03/02 02:12:52;;;;;;;23.60;14.02;;;;;;;;;;5054916;28;20205;-67
2023/03/02 02:15:20;;;;;;;24.08;12.88;;;;;;;;;;5054847;28;20197;-67
2023/03/02 02:17:48;;;;;;;24.85;13.25;;;;;;;;;;5051788;28;20201;-67
2023/03/02 02:20:22;;;;;;;25.88;14.57;;;;;;;;;;5051117;28;20201;-67
2023/03/02 02:22:56;;;;;;;23.33;14.10;;;;;;;;;;5054216;28;20226;-67
2023/03/02 02:25:40;;;;;;;23.67;12.93;;;;;;;;;;5052366;28;20984;-67
2023/03/02 02:28:14;;;;;;;25.23;14.18;;;;;;;;;;5050846;28;20740;-67
2023/03/02 02:30:42;;;;;;;27.27;12.70;;;;;;;;;;5052804;28;20235;-67
2023/03/02 02:33:14;;;;;;;32.53;13.98;;;;;;;;;;5054925;28;20208;-67
2023/03/02 02:35:43;;;;;;;18.98;11.75;;;;;;;;;;5054452;28;20185;-67
2023/03/02 02:38:12;;;;;;;22.85;13.07;;;;;;;;;;5054692;28;20212;-67
2023/03/02 02:40:43;;;;;;;23.35;13.35;;;;;;;;;;5054022;28;20205;-67
2023/03/02 02:43:17;;;;;;;19.48;13.10;;;;;;;;;;5053259;28;20615;-67
2023/03/02 02:45:45;;;;;;;25.95;12.05;;;;;;;;;;5053719;28;20221;-67
2023/03/02 02:48:15;;;;;;;26.67;13.20;;;;;;;;;;5054355;28;20201;-67
2023/03/02 02:50:44;;;;;;;23.42;12.80;;;;;;;;;;5052720;28;20695;-67
2023/03/02 02:53:15;;;;;;;22.67;13.55;;;;;;;;;;5053896;28;20277;-67
2023/03/02 02:55:43;;;;;;;21.40;13.68;;;;;;;;;;5053917;28;20223;-67
2023/03/02 02:58:24;;;;;;;21.05;12.27;;;;;;;;;;5053644;28;20204;-67
2023/03/02 03:00:53;;;;;;;24.55;13.52;;;;;;;;;;5053696;28;20192;-67
2023/03/02 03:03:29;;;;;;;19.05;11.85;;;;;;;;;;5052953;28;20208;-67
2023/03/02 03:06:01;;;;;;;24.48;13.23;;;;;;;;;;5053274;28;20208;-67
2023/03/02 03:08:54;;;;;;;26.52;13.40;;;;;;;;;;5052934;28;20207;-67
2023/03/02 03:11:33;;;;;;;27.05;13.13;;;;;;;;;;5042029;28;20214;-67
2023/03/02 03:14:06;;;;;;;21.45;12.45;;;;;;;;;;5053505;28;20245;-67
2023/03/02 03:16:35;;;;;;;22.05;13.52;;;;;;;;;;5053548;28;20199;-68
2023/03/02 03:19:06;;;;;;;19.75;10.90;;;;;;;;;;5053299;28;20193;-67
2023/03/02 03:21:35;;;;;;;25.27;14.20;;;;;;;;;;5052124;28;20199;-67
2023/03/02 03:24:03;;;;;;;21.02;12.68;;;;;;;;;;5051494;28;20258;-67
2023/03/02 03:26:32;;;;;;;28.33;14.00;;;;;;;;;;5053296;28;20209;-67
2023/03/02 03:29:00;;;;;;;19.83;12.60;;;;;;;;;;5050979;28;20208;-67
2023/03/02 03:31:30;;;;;;;24.05;12.43;;;;;;;;;;5053500;28;20605;-67
2023/03/02 03:33:59;;;;;;;21.60;12.48;;;;;;;;;;5051139;28;20668;-67
2023/03/02 03:36:31;;;;;;;23.73;12.85;;;;;;;;;;5053334;28;20230;-67
2023/03/02 03:39:00;;;;;;;24.55;12.55;;;;;;;;;;5051116;28;20538;-67
2023/03/02 03:41:28;;;;;;;27.88;13.15;;;;;;;;;;5053849;28;20204;-67
2023/03/02 03:43:57;;;;;;;21.08;11.82;;;;;;;;;;5052531;28;20569;-67
2023/03/02 03:46:25;;;;;;;24.50;14.32;;;;;;;;;;5051747;28;20220;-67
2023/03/02 03:48:55;;;;;;;20.38;12.85;;;;;;;;;;5050864;28;20197;-67
2023/03/02 03:51:24;;;;;;;20.65;11.90;;;;;;;;;;5051632;28;20665;-67
2023/03/02 03:53:59;;;;;;;22.83;12.40;;;;;;;;;;5051021;28;20197;-67
2023/03/02 03:56:32;;;;;;;20.83;11.88;;;;;;;;;;5051493;28;20193;-67
2023/03/02 03:59:06;;;;;;;24.50;13.30;;;;;;;;;;5053005;28;20196;-67
2023/03/02 04:01:38;;;;;;;20.30;12.60;;;;;;;;;;5051251;28;20207;-67
2023/03/02 04:04:08;;;;;;;25.35;13.15;;;;;;;;;;5051799;28;20561;-67
2023/03/02 04:06:37;;;;;;;31.52;13.65;;;;;;;;;;5051296;28;20211;-67
2023/03/02 04:09:05;;;;;;;19.67;12.60;;;;;;;;;;5052514;28;20205;-67
2023/03/02 04:11:36;;;;;;;19.58;10.27;;;;;;;;;;5052466;28;20200;-67
2023/03/02 04:14:05;;;;;;;26.35;12.65;;;;;;;;;;5051868;28;20201;-67
2023/03/02 04:16:34;;;;;;;21.80;12.77;;;;;;;;;;5051328;28;20215;-67
2023/03/02 04:19:02;;;;;;;24.27;13.05;;;;;;;;;;5050777;28;20258;-67
2023/03/02 04:21:32;;;;;;;19.98;12.05;;;;;;;;;;5051462;28;20644;-67
2023/03/02 04:24:00;;;;;;;16.30;10.70;;;;;;;;;;5053133;28;20230;-67
2023/03/02 04:26:28;;;;;;;28.42;13.77;;;;;;;;;;5051210;28;20222;-67
2023/03/02 04:28:57;;;;;;;30.05;16.30;;;;;;;;;;5052777;28;20625;-67
2023/03/02 04:31:26;;;;;;;34.58;15.68;;;;;;;;;;5052028;28;20246;-67
2023/03/02 04:33:54;;;;;;;38.30;15.73;;;;;;;;;;5051590;28;20204;-67
2023/03/02 04:36:22;;;;;;;21.70;12.48;;;;;;;;;;5051287;28;20200;-67
2023/03/02 04:38:52;;;;;;;21.63;13.13;;;;;;;;;;5052896;28;20211;-67
2023/03/02 04:41:20;;;;;;;21.70;13.77;;;;;;;;;;5052459;28;20219;-67
2023/03/02 04:43:48;;;;;;;26.00;13.93;;;;;;;;;;5054462;28;20201;-67
2023/03/02 04:46:19;;;;;;;24.20;14.10;;;;;;;;;;5056197;28;20690;-67
2023/03/02 04:48:47;;;;;;;23.00;12.35;;;;;;;;;;5055274;28;20245;-67
2023/03/02 04:51:17;;;;;;;23.42;13.40;;;;;;;;;;5056278;28;20200;-67
2023/03/02 04:53:46;;;;;;;24.80;12.38;;;;;;;;;;5045128;28;20709;-67
2023/03/02 04:56:15;;;;;;;20.55;12.70;;;;;;;;;;5055866;28;20208;-67
2023/03/02 04:58:43;;;;;;;26.33;12.90;;;;;;;;;;5052159;28;20203;-67
2023/03/02 05:01:12;;;;;;;26.30;12.93;;;;;;;;;;5055778;28;20546;-67
2023/03/02 05:03:40;;;;;;;21.55;12.75;;;;;;;;;;5053585;28;20292;-67
2023/03/02 05:06:09;;;;;;;24.65;12.65;;;;;;;;;;5054636;28;20703;-67
2023/03/02 05:08:37;;;;;;;21.13;12.13;;;;;;;;;;5055546;28;20208;-67
2023/03/02 05:11:06;;;;;;;23.63;12.45;;;;;;;;;;5056065;28;20266;-67
2023/03/02 05:13:36;;;;;;;29.25;11.48;;;;;;;;;;5056277;28;20211;-67
2023/03/02 05:16:05;;;;;;;20.40;12.50;;;;;;;;;;5055803;28;20223;-67
2023/03/02 05:18:33;;;;;;;19.50;11.35;;;;;;;;;;5055412;28;20211;-67
2023/03/02 05:21:01;;;;;;;21.45;12.05;;;;;;;;;;5055959;28;20563;-67
2023/03/02 05:23:30;;;;;;;21.85;11.63;;;;;;;;;;5055202;28;20235;-67
2023/03/02 05:25:58;;;;;;;24.70;13.98;;;;;;;;;;5055313;28;20223;-67
2023/03/02 05:28:27;;;;;;;23.77;15.25;;;;;;;;;;5054622;28;20223;-67
2023/03/02 05:30:57;;;;;;;24.15;12.25;;;;;;;;;;5055047;28;20225;-67
2023/03/02 05:33:25;;;;;;;23.98;12.45;;;;;;;;;;5056068;28;20801;-67
2023/03/02 05:35:53;;;;;;;19.30;11.93;;;;;;;;;;5057299;28;20712;-67
2023/03/02 05:38:22;;;;;;;21.58;12.45;;;;;;;;;;5056092;28;20209;-67
2023/03/02 05:40:50;;;;;;;22.77;13.60;;;;;;;;;;5056121;28;20213;-67
2023/03/02 05:43:19;;;;;;;20.05;12.20;;;;;;;;;;5056486;28;20197;-67
2023/03/02 05:45:47;;;;;;;20.00;12.77;;;;;;;;;;5055505;28;20216;-67
2023/03/02 05:48:17;;;;;;;25.83;12.95;;;;;;;;;;5055941;28;20257;-67
2023/03/02 05:50:45;;;;;;;20.90;13.15;;;;;;;;;;5054682;28;20204;-67
2023/03/02 05:53:13;;;;;;;18.63;11.23;;;;;;;;;;5054145;28;20302;-67
2023/03/02 05:55:41;;;;;;;24.55;11.43;;;;;;;;;;5052034;28;20207;-67
2023/03/02 05:58:17;;;;;;;26.13;14.05;;;;;;;;;;5054568;28;20192;-67
2023/03/02 06:00:45;;;;;;;28.40;15.38;;;;;;;;;;5053482;28;20647;-67
2023/03/02 06:03:14;;;;;;;41.47;17.98;;;;;;;;;;5053246;28;20576;-67
2023/03/02 06:05:43;;;;;;;29.00;15.90;;;;;;;;;;5055082;28;20220;-67
2023/03/02 06:08:11;;;;;;;25.10;14.93;;;;;;;;;;5054549;28;20655;-68
2023/03/02 06:10:40;;;;;;;24.80;14.50;;;;;;;;;;5055061;28;20211;-67
2023/03/02 06:13:08;;;;;;;22.40;13.15;;;;;;;;;;5054751;28;20207;-67
2023/03/02 06:15:36;;;;;;;29.00;14.10;;;;;;;;;;5055029;28;20197;-67
2023/03/02 06:18:04;;;;;;;25.17;14.48;;;;;;;;;;5055165;28;20196;-67
2023/03/02 06:20:32;;;;;;;28.45;16.05;;;;;;;;;;5054542;28;20201;-67
2023/03/02 06:23:02;;;;;;;29.27;15.93;;;;;;;;;;5054426;28;20213;-65
2023/03/02 06:25:30;;;;;;;23.90;13.80;;;;;;;;;;5045804;28;20197;-66
2023/03/02 06:27:59;;;;;;;21.42;12.32;;;;;;;;;;5049635;28;20201;-68
2023/03/02 06:30:27;;;;;;;21.98;12.93;;;;;;;;;;5052340;28;20229;-67
2023/03/02 06:32:55;;;;;;;24.33;13.10;;;;;;;;;;5042428;28;20204;-67
2023/03/02 06:35:23;;;;;;;18.35;10.73;;;;;;;;;;5053141;28;20200;-67
2023/03/02 06:37:51;;;;;;;28.95;13.57;;;;;;;;;;5053802;28;20559;-67
2023/03/02 06:40:21;;;;;;;25.85;13.25;;;;;;;;;;5053585;28;20677;-67
2023/03/02 06:42:49;;;;;;;32.10;14.30;;;;;;;;;;5054360;28;20196;-67
2023/03/02 06:45:18;;;;;;;23.00;14.98;;;;;;;;;;5053823;28;20694;-67
2023/03/02 06:47:46;;;;;;;25.88;13.88;;;;;;;;;;5054059;28;20217;-67
2023/03/02 06:50:14;;;;;;;21.35;13.38;;;;;;;;;;5053968;28;20234;-67
2023/03/02 06:52:42;;;;;;;27.20;13.38;;;;;;;;;;5053787;28;20300;-67
2023/03/02 06:55:11;;;;;;;24.08;12.32;;;;;;;;;;5052920;28;20207;-67
2023/03/02 06:57:40;;;;;;;20.05;11.63;;;;;;;;;;5053273;28;20192;-66
2023/03/02 07:00:15;;;;;;;25.13;14.27;;;;;;;;;;5051321;28;20197;-68
2023/03/02 07:02:44;;;;;;;20.17;13.85;;;;;;;;;;5053250;28;20193;-69
2023/03/02 07:05:13;;;;;;;23.73;13.10;;;;;;;;;;5053146;28;20201;-68
2023/03/02 07:07:41;;;;;;;23.63;14.35;;;;;;;;;;5051494;28;20208;-68
2023/03/02 07:10:12;;;;;;;23.80;12.75;;;;;;;;;;5053826;28;20200;-68
2023/03/02 07:12:41;;;;;;;26.80;14.23;;;;;;;;;;5053339;28;20185;-68
2023/03/02 07:15:12;;;;;;;21.98;14.02;;;;;;;;;;5053997;28;20201;-69
2023/03/02 07:17:42;;;;;;;23.48;13.95;;;;;;;;;;5053683;28;20193;-68
2023/03/02 07:20:12;;;;;;;20.88;13.35;;;;;;;;;;5053090;28;20214;-68
2023/03/02 07:22:40;;;;;;;25.55;14.50;;;;;;;;;;5054338;28;20242;-68
2023/03/02 07:25:09;;;;;;;23.52;14.23;;;;;;;;;;5052760;28;20201;-69
2023/03/02 07:27:37;;;;;;;25.02;13.30;;;;;;;;;;5053545;28;20227;-68
2023/03/02 07:30:08;;;;;;;27.98;13.43;;;;;;;;;;5053469;28;20725;-68
2023/03/02 07:32:36;;;;;;;23.25;13.07;;;;;;;;;;5052652;28;20203;-68
2023/03/02 07:35:04;;;;;;;24.52;14.45;;;;;;;;;;5053886;28;20200;-68
2023/03/02 07:37:33;;;;;;;23.17;13.43;;;;;;;;;;5053488;28;20208;-68
2023/03/02 07:40:01;;;;;;;23.95;12.73;;;;;;;;;;5054005;28;20226;-68
2023/03/02 07:42:29;;;;;;;24.02;13.95;;;;;;;;;;5053249;28;20205;-68
2023/03/02 07:44:59;;;;;;;23.10;13.82;;;;;;;;;;5052837;28;20691;-68
2023/03/02 07:47:29;;;;;;;21.40;13.30;;;;;;;;;;5053066;28;20216;-68
2023/03/02 07:49:57;;;;;;;22.30;14.43;;;;;;;;;;5053524;28;20218;-67
2023/03/02 07:52:25;;;;;;;27.67;14.98;;;;;;;;;;5053359;28;20211;-68
2023/03/02 07:54:53;;;;;;;26.42;15.32;;;;;;;;;;5053523;28;20223;-68
2023/03/02 07:57:22;;;;;;;28.02;14.45;;;;;;;;;;5051414;28;20216;-67
2023/03/02 07:59:50;;;;;;;31.08;15.70;;;;;;;;;;5051626;28;20205;-68
2023/03/02 08:02:20;;;;;;;19.45;12.70;;;;;;;;;;5049471;28;20196;-67
2023/03/02 08:04:51;;;;;;;19.98;13.55;;;;;;;;;;5048692;28;20201;-67
2023/03/02 08:07:19;;;;;;;26.70;13.55;;;;;;;;;;5050703;28;20205;-65
2023/03/02 08:09:47;;;;;;;22.67;13.63;;;;;;;;;;5050389;28;20207;-65
2023/03/02 08:12:15;;;;;;;22.42;13.15;;;;;;;;;;5050236;28;20213;-66
2023/03/02 08:14:43;;;;;;;21.95;12.70;;;;;;;;;;5051416;28;20207;-66
2023/03/02 08:17:12;;;;;;;19.08;13.55;;;;;;;;;;5053489;28;20208;-66
2023/03/02 08:19:40;;;;;;;21.67;14.23;;;;;;;;;;5055796;28;20204;-66
2023/03/02 08:22:09;;;;;;;26.58;13.95;;;;;;;;;;5057704;28;20200;-66
2023/03/02 08:24:40;;;;;;;22.40;13.10;;;;;;;;;;5056691;28;20305;-67
2023/03/02 08:27:08;;;;;;;21.77;13.80;;;;;;;;;;5057640;28;20231;-66
2023/03/02 08:29:37;;;;;;;25.70;15.00;;;;;;;;;;5056863;28;20271;-67
2023/03/02 08:32:05;;;;;;;24.23;13.93;;;;;;;;;;5055892;28;20610;-66
2023/03/02 08:34:34;;;;;;;26.10;14.40;;;;;;;;;;5056509;28;20612;-66
2023/03/02 08:37:02;;;;;;;30.90;14.73;;;;;;;;;;5057276;28;20547;-66
2023/03/02 08:39:31;;;;;;;26.55;15.75;;;;;;;;;;5056559;28;20265;-66
2023/03/02 08:42:00;;;;;;;20.00;13.38;;;;;;;;;;5057011;28;20206;-66
2023/03/02 08:44:28;;;;;;;27.35;15.38;;;;;;;;;;5056174;28;20215;-66
2023/03/02 08:46:56;;;;;;;25.33;15.80;;;;;;;;;;5056304;28;20208;-65
2023/03/02 08:49:24;;;;;;;22.38;14.25;;;;;;;;;;5056055;28;20205;-65
2023/03/02 08:51:55;;;;;;;25.52;14.80;;;;;;;;;;5056424;28;20217;-66
2023/03/02 08:54:23;;;;;;;21.65;14.45;;;;;;;;;;5055712;28;20193;-66
2023/03/02 08:56:52;;;;;;;26.42;15.50;;;;;;;;;;5055989;28;20201;-66
2023/03/02 08:59:21;;;;;;;29.83;16.23;;;;;;;;;;5056048;28;20569;-66
2023/03/02 09:01:49;;;;;;;27.17;17.48;;;;;;;;;;5055614;28;20206;-67
2023/03/02 09:04:17;;;;;;;29.10;18.00;;;;;;;;;;5055226;28;20209;-67
2023/03/02 09:06:46;;;;;;;23.38;14.38;;;;;;;;;;5055416;28;20201;-67
2023/03/02 09:09:15;;;;;;;26.00;16.73;;;;;;;;;;5055739;28;20214;-66
2023/03/02 09:11:43;;;;;;;24.45;15.10;;;;;;;;;;5056234;28;20542;-67
2023/03/02 09:14:13;;;;;;;22.48;15.07;;;;;;;;;;5056005;28;20207;-67
2023/03/02 09:16:41;;;;;;;21.95;14.15;;;;;;;;;;5055846;28;20215;-67
2023/03/02 09:19:10;;;;;;;21.52;15.30;;;;;;;;;;5055910;28;20208;-67
2023/03/02 09:21:38;;;;;;;24.42;16.75;;;;;;;;;;5055546;28;20208;-68
2023/03/02 09:24:07;;;;;;;22.60;15.48;;;;;;;;;;5054479;28;20230;-67
2023/03/02 09:26:37;;;;;;;24.58;16.17;;;;;;;;;;5055618;28;20211;-68
2023/03/02 09:29:06;;;;;;;21.70;15.07;;;;;;;;;;5054067;28;20604;-66
2023/03/02 09:31:36;;;;;;;26.52;16.65;;;;;;;;;;5055070;28;20266;-67
2023/03/02 09:34:04;;;;;;;27.83;16.92;;;;;;;;;;5055295;28;20208;-67
2023/03/02 09:36:33;;;;;;;23.27;15.38;;;;;;;;;;5055850;28;20208;-68
2023/03/02 09:39:07;;;;;;;27.70;15.60;;;;;;;;;;5055031;28;20197;-68
2023/03/02 09:41:42;;;;;;;29.17;18.13;;;;;;;;;;5055571;28;20185;-68
2023/03/02 09:44:18;;;;;;;30.70;18.70;;;;;;;;;;5054678;28;20216;-68
2023/03/02 09:46:50;;;;;;;29.38;18.13;;;;;;;;;;5055160;28;20188;-68
2023/03/02 09:49:25;;;;;;;30.38;17.42;;;;;;;;;;5054653;28;20209;-68
2023/03/02 09:52:01;;;;;;;28.25;17.30;;;;;;;;;;5054303;28;20196;-68
2023/03/02 09:54:29;;;;;;;24.17;16.15;;;;;;;;;;5054689;28;20565;-69
2023/03/02 09:57:00;;;;;;;27.55;19.00;;;;;;;;;;5054346;28;20195;-68
2023/03/02 09:59:30;;;;;;;27.08;15.95;;;;;;;;;;5055458;28;20196;-69
2023/03/02 10:02:01;;;;;;;48.00;23.85;;;;;;;;;;5053963;28;20226;-68
2023/03/02 10:04:31;;;;;;;31.88;19.13;;;;;;;;;;5054259;28;20193;-68
2023/03/02 10:07:03;;;;;;;37.25;18.17;;;;;;;;;;5054793;28;20239;-68
2023/03/02 10:09:31;;;;;;;32.22;19.20;;;;;;;;;;5055287;28;20561;-69
2023/03/02 10:12:06;;;;;;;25.63;17.10;;;;;;;;;;5054688;28;20683;-68
2023/03/02 10:14:39;;;;;;;26.20;17.27;;;;;;;;;;5055006;28;20207;-68
2023/03/02 10:17:23;;;;;;;29.77;20.15;;;;;;;;;;5053854;28;20195;-69
2023/03/02 10:19:54;;;;;;;23.75;16.85;;;;;;;;;;5054258;28;20184;-70
2023/03/02 10:22:27;;;;;;;29.75;18.88;;;;;;;;;;5053523;28;20306;-68
2023/03/02 10:24:58;;;;;;;23.63;18.27;;;;;;;;;;5054039;28;20203;-68
2023/03/02 10:27:29;;;;;;;25.80;18.23;;;;;;;;;;5053375;28;20191;-68
2023/03/02 10:30:00;;;;;;;37.55;18.77;;;;;;;;;;5052703;28;20189;-69
2023/03/02 10:32:32;;;;;;;27.50;18.13;;;;;;;;;;5053108;28;20617;-67
2023/03/02 10:35:02;;;;;;;29.05;17.85;;;;;;;;;;5052340;28;20197;-67
2023/03/02 10:37:31;;;;;;;28.20;20.08;;;;;;;;;;5053465;28;20189;-67
2023/03/02 10:39:59;;;;;;;28.67;17.40;;;;;;;;;;5053633;28;20211;-68
2023/03/02 10:42:29;;;;;;;24.90;16.73;;;;;;;;;;5050943;28;20204;-68
2023/03/02 10:44:59;;;;;;;30.08;19.50;;;;;;;;;;5053391;28;20697;-68
2023/03/02 10:47:29;;;;;;;25.50;17.38;;;;;;;;;;5053850;28;20215;-67
2023/03/02 10:49:58;;;;;;;25.60;18.90;;;;;;;;;;5052317;28;20219;-67
2023/03/02 10:52:27;;;;;;;26.25;17.27;;;;;;;;;;5053544;28;20231;-67
2023/03/02 10:55:02;;;;;;;23.77;17.23;;;;;;;;;;5052116;28;20201;-67
2023/03/02 10:57:35;;;;;;;27.42;18.60;;;;;;;;;;5051892;28;20188;-66
2023/03/02 11:00:05;;;;;;;36.55;20.15;;;;;;;;;;5051192;28;20185;-67
2023/03/02 11:02:34;;;;;;;30.33;18.27;;;;;;;;;;5050310;28;20197;-67
2023/03/02 11:05:20;;;;;;;33.70;21.42;;;;;;;;;;5049707;28;20213;-68
2023/03/02 11:07:53;;;;;;;26.20;19.02;;;;;;;;;;5052408;28;20640;-68
2023/03/02 11:10:22;;;;;;;29.27;20.15;;;;;;;;;;5052602;28;20185;-68
2023/03/02 11:12:51;;;;;;;27.00;18.90;;;;;;;;;;5051302;28;20204;-68
2023/03/02 11:15:25;;;;;;;30.45;21.20;;;;;;;;;;5051880;28;20751;-69
2023/03/02 11:18:04;;;;;;;25.38;18.80;;;;;;;;;;5052086;28;20184;-69
2023/03/02 11:20:35;;;;;;;29.60;20.60;;;;;;;;;;5049983;28;20193;-69
2023/03/02 11:23:08;;;;;;;25.55;19.30;;;;;;;;;;5050352;28;20687;-69
2023/03/02 11:25:38;;;;;;;28.50;20.70;;;;;;;;;;5030401;28;20201;-70
2023/03/02 11:28:11;;;;;;;49.03;30.43;;;;;;;;;;5030851;28;20209;-68
2023/03/02 11:30:42;;;;;;;27.40;21.98;;;;;;;;;;5030103;28;21221;-69
2023/03/02 11:33:15;;;;;;;27.50;22.00;;;;;;;;;;5031736;28;20534;-68
2023/03/02 11:35:46;;;;;;;35.67;24.67;;;;;;;;;;5032657;28;20181;-68
2023/03/02 11:38:17;;;;;;;30.57;22.67;;;;;;;;;;5044724;28;20197;-68
2023/03/02 11:40:47;;;;;;;27.53;21.13;;;;;;;;;;5052810;28;20611;-68
2023/03/02 11:43:15;;;;;;;28.13;20.77;;;;;;;;;;5053462;28;21009;-69
2023/03/02 11:45:45;;;;;;;26.33;20.83;;;;;;;;;;5052473;28;20600;-69
2023/03/02 11:48:18;;;;;;;29.97;21.47;;;;;;;;;;5052675;28;21231;-69
2023/03/02 11:50:51;;;;;;;29.53;20.50;;;;;;;;;;5054603;28;20572;-70
2023/03/02 11:53:20;;;;;;;27.07;20.90;;;;;;;;;;5054693;28;20672;-69
2023/03/02 11:55:49;;;;;;;32.78;24.33;;;;;;;;;;5053208;28;21075;-69
2023/03/02 11:58:19;;;;;;;51.60;32.17;;;;;;;;;;5049099;28;20234;-68
2023/03/02 12:00:47;;;;;;;24.20;21.60;;;;;;;;;;5048026;28;20601;-70
2023/03/02 12:03:37;;;;;;;29.93;22.70;;;;;;;;;;5050090;28;20611;-69
2023/03/02 12:06:08;;;;;;;27.37;21.57;;;;;;;;;;5051287;28;20607;-69
2023/03/02 12:08:38;;;;;;;23.30;20.80;;;;;;;;;;5052267;28;21200;-69
2023/03/02 12:11:07;;;;;;;26.40;20.40;;;;;;;;;;5051735;28;20598;-68
2023/03/02 12:13:36;;;;;;;27.37;21.80;;;;;;;;;;5049951;28;20627;-68
2023/03/02 12:16:05;;;;;;;21.77;18.50;;;;;;;;;;5049204;28;20965;-69
2023/03/02 12:18:45;;;;;;;23.27;20.77;;;;;;;;;;5050031;28;21058;-69
2023/03/02 12:21:16;;;;;;;27.73;22.00;;;;;;;;;;5050472;28;20580;-69
2023/03/02 12:24:02;;;;;;;24.87;21.47;;;;;;;;;;5050308;28;20657;-69
2023/03/02 12:26:33;;;;;;;26.00;21.80;;;;;;;;;;5049888;28;20594;-69
2023/03/02 12:29:03;;;;;;;26.27;21.73;;;;;;;;;;5048761;28;20625;-68
2023/03/02 12:31:43;;;;;;;23.87;21.10;;;;;;;;;;5050072;28;21057;-69
2023/03/02 12:34:41;;;;;;;27.20;20.67;;;;;;;;;;5049139;28;20574;-69
2023/03/02 12:37:17;;;;;;;27.03;21.67;;;;;;;;;;5024460;28;21173;-69
2023/03/02 12:40:10;;;;;;;25.03;20.33;;;;;;;;;;5046154;28;20943;-69
2023/03/02 12:42:45;;;;;;;23.93;21.40;;;;;;;;;;5050751;28;20596;-69
2023/03/02 12:45:20;;;;;;;22.13;19.87;;;;;;;;;;5051124;28;20859;-70
2023/03/02 12:47:51;;;;;;;22.73;19.90;;;;;;;;;;5049815;28;20625;-68
2023/03/02 12:50:21;;;;;;;26.43;19.90;;;;;;;;;;5048252;28;20646;-69
2023/03/02 12:52:59;;;;;;;23.60;20.80;;;;;;;;;;5050983;28;20615;-69
2023/03/02 12:55:27;;;;;;;28.10;21.60;;;;;;;;;;5046801;28;20630;-69
2023/03/02 12:57:57;;;;;;;28.83;22.30;;;;;;;;;;5053694;28;20634;-69
2023/03/02 13:00:27;;;;;;;28.87;22.17;;;;;;;;;;5047166;28;20633;-70
2023/03/02 13:02:56;;;;;;;24.97;21.73;;;;;;;;;;5051100;28;20627;-69
2023/03/02 13:05:25;;;;;;;22.53;20.07;;;;;;;;;;5050200;28;20642;-69
2023/03/02 13:07:57;;;;;;;29.60;20.57;;;;;;;;;;5054188;28;20606;-69
2023/03/02 13:10:30;;;;;;;22.52;19.90;;;;;;;;;;5057971;28;20766;-67
2023/03/02 13:12:59;;;;;;;27.93;21.80;;;;;;;;;;5056078;28;20208;-67
2023/03/02 13:15:27;;;;;;;26.13;21.10;;;;;;;;;;5055142;28;20618;-67
2023/03/02 13:17:56;;;;;;;22.30;19.90;;;;;;;;;;5071146;28;20633;-67
2023/03/02 13:20:25;;;;;;;24.93;22.07;;;;;;;;;;5058558;28;20627;-68
2023/03/02 13:22:54;;;;;;;23.97;21.33;;;;;;;;;;5060333;28;20656;-68
2023/03/02 13:25:24;;;;;;;25.53;20.30;;;;;;;;;;5074532;28;21171;-68
2023/03/02 13:27:55;;;;;;;24.00;21.50;;;;;;;;;;5074960;28;20604;-68
2023/03/02 13:30:25;;;;;;;21.50;19.40;;;;;;;;;;5073705;28;20680;-68
2023/03/02 13:32:56;;;;;;;24.13;21.53;;;;;;;;;;5074615;28;20640;-68
2023/03/02 13:35:26;;;;;;;27.17;22.13;;;;;;;;;;5074026;28;20662;-68
2023/03/02 13:37:58;;;;;;;27.65;20.30;;;;;;;;;;5074918;28;21074;-68
2023/03/02 13:40:34;;;;;;;25.70;21.20;;;;;;;;;;5063572;28;20204;-68
2023/03/02 13:43:07;;;;;;;27.33;23.87;;;;;;;;;;5075370;28;20659;-68
2023/03/02 13:45:35;;;;;;;25.13;21.60;;;;;;;;;;5073267;28;20606;-68
2023/03/02 13:48:14;;;;;;;26.77;23.80;;;;;;;;;;5061558;28;20623;-69
2023/03/02 13:50:51;;;;;;;23.13;20.63;;;;;;;;;;5049795;28;20626;-68
2023/03/02 13:53:19;;;;;;;22.23;19.87;;;;;;;;;;5074208;28;20598;-69
2023/03/02 13:55:48;;;;;;;22.53;20.03;;;;;;;;;;5066519;28;20982;-68
2023/03/02 13:58:18;;;;;;;21.37;19.33;;;;;;;;;;5058031;28;20614;-70
2023/03/02 14:00:48;;;;;;;26.53;19.50;;;;;;;;;;5056114;28;20618;-68
2023/03/02 14:03:21;;;;;;;22.50;20.17;;;;;;;;;;5073107;28;20636;-68
2023/03/02 14:05:50;;;;;;;24.90;22.33;;;;;;;;;;5072513;28;20602;-69
2023/03/02 14:08:18;;;;;;;21.50;19.30;;;;;;;;;;5075007;28;20969;-69
2023/03/02 14:10:47;;;;;;;23.67;21.30;;;;;;;;;;5075829;28;20665;-69
2023/03/02 14:13:16;;;;;;;24.90;22.30;;;;;;;;;;5046526;28;20620;-68
2023/03/02 14:15:49;;;;;;;27.80;21.30;;;;;;;;;;5052995;28;20701;-68
2023/03/02 14:18:26;;;;;;;25.70;21.97;;;;;;;;;;5055031;28;20602;-68
2023/03/02 14:20:54;;;;;;;23.20;20.97;;;;;;;;;;5054880;28;20565;-68
2023/03/02 14:23:22;;;;;;;24.17;21.50;;;;;;;;;;5054160;28;20639;-68
2023/03/02 14:25:51;;;;;;;24.60;21.90;;;;;;;;;;5054860;28;20615;-68
2023/03/02 14:28:30;;;;;;;23.37;21.00;;;;;;;;;;5054256;28;20633;-68
2023/03/02 14:31:00;;;;;;;24.10;21.17;;;;;;;;;;5054337;28;20676;-68
2023/03/02 14:33:28;;;;;;;24.40;21.27;;;;;;;;;;5053552;28;20617;-68